sensor_id;sensor_type;location;lat;lon;timestamp;P1;durP1;ratioP1;P2;durP2;ratioP2
10122;SDS011;5101;49.038;8.710;2022-09-13T00:02:00;2.60;;;1.90;;
10122;SDS011;5101;49.038;8.710;2022-09-13T00:04:25;2.42;;;1.83;;
10122;SDS011;5101;49.038;8.710;2022-09-13T00:06:51;1.85;;;1.75;;
10122;SDS011;5101;49.038;8.710;2022-09-13T00:09:16;5.03;;;2.10;;
10122;SDS011;5101;49.038;8.710;2022-09-13T00:11:42;2.10;;;1.95;;
10122;SDS011;5101;49.038;8.710;2022-09-13T00:14:07;3.30;;;2.00;;
10122;SDS011;5101;49.038;8.710;2022-09-13T00:16:33;2.92;;;2.10;;
10122;SDS011;5101;49.038;8.710;2022-09-13T00:18:59;1.95;;;1.73;;
10122;SDS011;5101;49.038;8.710;2022-09-13T00:21:25;2.83;;;1.88;;
10122;SDS011;5101;49.038;8.710;2022-09-13T00:23:52;2.28;;;1.70;;
10122;SDS011;5101;49.038;8.710;2022-09-13T00:26:19;1.67;;;1.58;;
10122;SDS011;5101;49.038;8.710;2022-09-13T00:28:50;2.05;;;1.90;;
10122;SDS011;5101;49.038;8.710;2022-09-13T00:31:18;2.47;;;1.90;;
10122;SDS011;5101;49.038;8.710;2022-09-13T00:33:44;2.10;;;1.92;;
10122;SDS011;5101;49.038;8.710;2022-09-13T00:36:10;2.65;;;1.88;;
10122;SDS011;5101;49.038;8.710;2022-09-13T00:38:37;2.38;;;2.17;;
10122;SDS011;5101;49.038;8.710;2022-09-13T00:41:07;4.85;;;2.45;;
10122;SDS011;5101;49.038;8.710;2022-09-13T00:46:23;2.30;;;2.10;;
10122;SDS011;5101;49.038;8.710;2022-09-13T00:48:54;3.03;;;1.92;;
10122;SDS011;5101;49.038;8.710;2022-09-13T00:51:25;2.90;;;2.28;;
10122;SDS011;5101;49.038;8.710;2022-09-13T00:53:51;2.38;;;2.00;;
10122;SDS011;5101;49.038;8.710;2022-09-13T00:56:22;1.70;;;1.60;;
10122;SDS011;5101;49.038;8.710;2022-09-13T00:59:00;5.70;;;1.85;;
10122;SDS011;5101;49.038;8.710;2022-09-13T01:01:33;1.90;;;1.70;;
10122;SDS011;5101;49.038;8.710;2022-09-13T01:04:04;1.85;;;1.75;;
10122;SDS011;5101;49.038;8.710;2022-09-13T01:06:31;1.90;;;1.80;;
10122;SDS011;5101;49.038;8.710;2022-09-13T01:09:00;3.08;;;1.90;;
10122;SDS011;5101;49.038;8.710;2022-09-13T01:14:14;1.67;;;1.58;;
10122;SDS011;5101;49.038;8.710;2022-09-13T01:16:42;3.92;;;1.65;;
10122;SDS011;5101;49.038;8.710;2022-09-13T01:19:08;2.75;;;1.88;;
10122;SDS011;5101;49.038;8.710;2022-09-13T01:27:50;2.53;;;2.25;;
10122;SDS011;5101;49.038;8.710;2022-09-13T01:33:59;4.30;;;1.90;;
10122;SDS011;5101;49.038;8.710;2022-09-13T01:47:40;2.45;;;1.67;;
10122;SDS011;5101;49.038;8.710;2022-09-13T01:53:08;3.15;;;1.90;;
10122;SDS011;5101;49.038;8.710;2022-09-13T01:55:50;1.88;;;1.77;;
10122;SDS011;5101;49.038;8.710;2022-09-13T01:58:24;2.00;;;1.90;;
10122;SDS011;5101;49.038;8.710;2022-09-13T02:03:48;3.05;;;2.00;;
10122;SDS011;5101;49.038;8.710;2022-09-13T02:06:35;2.50;;;1.80;;
10122;SDS011;5101;49.038;8.710;2022-09-13T02:09:11;2.05;;;1.88;;
10122;SDS011;5101;49.038;8.710;2022-09-13T02:11:40;4.68;;;2.10;;
10122;SDS011;5101;49.038;8.710;2022-09-13T02:14:10;2.50;;;2.30;;
10122;SDS011;5101;49.038;8.710;2022-09-13T02:16:40;3.40;;;3.20;;
10122;SDS011;5101;49.038;8.710;2022-09-13T02:19:10;3.30;;;3.00;;
10122;SDS011;5101;49.038;8.710;2022-09-13T02:21:41;3.22;;;2.33;;
10122;SDS011;5101;49.038;8.710;2022-09-13T02:24:11;2.28;;;2.05;;
10122;SDS011;5101;49.038;8.710;2022-09-13T02:26:41;2.45;;;2.33;;
10122;SDS011;5101;49.038;8.710;2022-09-13T02:29:13;2.55;;;2.30;;
10122;SDS011;5101;49.038;8.710;2022-09-13T02:31:46;3.00;;;2.03;;
10122;SDS011;5101;49.038;8.710;2022-09-13T02:34:35;1.90;;;1.80;;
10122;SDS011;5101;49.038;8.710;2022-09-13T02:37:04;3.08;;;1.90;;
10122;SDS011;5101;49.038;8.710;2022-09-13T02:39:32;2.85;;;2.03;;
10122;SDS011;5101;49.038;8.710;2022-09-13T02:42:06;2.03;;;1.70;;
10122;SDS011;5101;49.038;8.710;2022-09-13T02:44:42;2.10;;;1.88;;
10122;SDS011;5101;49.038;8.710;2022-09-13T02:50:04;2.25;;;1.92;;
10122;SDS011;5101;49.038;8.710;2022-09-13T02:53:10;2.20;;;2.00;;
10122;SDS011;5101;49.038;8.710;2022-09-13T02:58:43;2.00;;;1.90;;
10122;SDS011;5101;49.038;8.710;2022-09-13T03:01:13;2.20;;;2.00;;
10122;SDS011;5101;49.038;8.710;2022-09-13T03:03:39;2.58;;;2.28;;
10122;SDS011;5101;49.038;8.710;2022-09-13T03:06:05;1.88;;;1.77;;
10122;SDS011;5101;49.038;8.710;2022-09-13T03:08:30;1.98;;;1.88;;
10122;SDS011;5101;49.038;8.710;2022-09-13T03:22:22;3.28;;;2.10;;
10122;SDS011;5101;49.038;8.710;2022-09-13T03:25:05;2.40;;;2.03;;
10122;SDS011;5101;49.038;8.710;2022-09-13T03:27:44;4.10;;;2.30;;
10122;SDS011;5101;49.038;8.710;2022-09-13T03:30:26;3.50;;;2.28;;
10122;SDS011;5101;49.038;8.710;2022-09-13T03:46:11;2.80;;;2.60;;
10122;SDS011;5101;49.038;8.710;2022-09-13T03:48:42;2.40;;;2.20;;
10122;SDS011;5101;49.038;8.710;2022-09-13T03:51:09;3.22;;;2.55;;
10122;SDS011;5101;49.038;8.710;2022-09-13T03:53:36;2.72;;;2.50;;
10122;SDS011;5101;49.038;8.710;2022-09-13T03:56:19;2.40;;;2.20;;
10122;SDS011;5101;49.038;8.710;2022-09-13T03:58:45;2.20;;;2.10;;
10122;SDS011;5101;49.038;8.710;2022-09-13T04:01:11;4.93;;;2.55;;
10122;SDS011;5101;49.038;8.710;2022-09-13T04:03:38;2.70;;;2.50;;
10122;SDS011;5101;49.038;8.710;2022-09-13T04:06:04;3.53;;;2.55;;
10122;SDS011;5101;49.038;8.710;2022-09-13T04:08:31;2.95;;;2.67;;
10122;SDS011;5101;49.038;8.710;2022-09-13T04:10:57;2.92;;;2.58;;
10122;SDS011;5101;49.038;8.710;2022-09-13T04:13:24;2.78;;;2.47;;
10122;SDS011;5101;49.038;8.710;2022-09-13T04:15:50;2.42;;;2.22;;
10122;SDS011;5101;49.038;8.710;2022-09-13T04:18:16;2.75;;;2.47;;
10122;SDS011;5101;49.038;8.710;2022-09-13T04:20:42;2.70;;;2.47;;
10122;SDS011;5101;49.038;8.710;2022-09-13T04:23:08;3.28;;;2.50;;
10122;SDS011;5101;49.038;8.710;2022-09-13T04:25:36;3.15;;;2.50;;
10122;SDS011;5101;49.038;8.710;2022-09-13T04:28:03;2.00;;;1.90;;
10122;SDS011;5101;49.038;8.710;2022-09-13T04:30:28;2.33;;;2.13;;
10122;SDS011;5101;49.038;8.710;2022-09-13T04:32:54;3.67;;;2.17;;
10122;SDS011;5101;49.038;8.710;2022-09-13T04:35:20;3.78;;;2.50;;
10122;SDS011;5101;49.038;8.710;2022-09-13T04:37:46;4.50;;;2.42;;
10122;SDS011;5101;49.038;8.710;2022-09-13T04:40:11;3.03;;;2.35;;
10122;SDS011;5101;49.038;8.710;2022-09-13T04:42:38;3.33;;;2.85;;
10122;SDS011;5101;49.038;8.710;2022-09-13T04:45:04;2.55;;;2.42;;
10122;SDS011;5101;49.038;8.710;2022-09-13T04:47:30;4.25;;;2.35;;
10122;SDS011;5101;49.038;8.710;2022-09-13T04:49:56;2.90;;;2.08;;
10122;SDS011;5101;49.038;8.710;2022-09-13T04:52:22;2.63;;;2.17;;
10122;SDS011;5101;49.038;8.710;2022-09-13T04:54:47;3.47;;;2.60;;
10122;SDS011;5101;49.038;8.710;2022-09-13T04:57:14;6.45;;;2.67;;
10122;SDS011;5101;49.038;8.710;2022-09-13T04:59:40;4.80;;;2.72;;
10122;SDS011;5101;49.038;8.710;2022-09-13T05:02:06;2.63;;;2.42;;
10122;SDS011;5101;49.038;8.710;2022-09-13T05:04:33;2.03;;;1.92;;
10122;SDS011;5101;49.038;8.710;2022-09-13T05:06:59;3.85;;;2.38;;
10122;SDS011;5101;49.038;8.710;2022-09-13T05:09:24;2.97;;;2.67;;
10122;SDS011;5101;49.038;8.710;2022-09-13T05:11:50;2.83;;;2.30;;
10122;SDS011;5101;49.038;8.710;2022-09-13T05:14:15;6.18;;;2.92;;
10122;SDS011;5101;49.038;8.710;2022-09-13T05:16:41;2.67;;;2.40;;
10122;SDS011;5101;49.038;8.710;2022-09-13T05:19:07;2.92;;;2.22;;
10122;SDS011;5101;49.038;8.710;2022-09-13T05:21:34;3.17;;;2.63;;
10122;SDS011;5101;49.038;8.710;2022-09-13T05:23:59;4.00;;;2.75;;
10122;SDS011;5101;49.038;8.710;2022-09-13T05:26:26;3.78;;;2.65;;
10122;SDS011;5101;49.038;8.710;2022-09-13T05:28:55;3.00;;;2.53;;
10122;SDS011;5101;49.038;8.710;2022-09-13T05:31:22;3.88;;;2.85;;
10122;SDS011;5101;49.038;8.710;2022-09-13T05:33:54;4.38;;;3.88;;
10122;SDS011;5101;49.038;8.710;2022-09-13T05:36:22;6.57;;;5.03;;
10122;SDS011;5101;49.038;8.710;2022-09-13T05:38:48;7.93;;;4.57;;
10122;SDS011;5101;49.038;8.710;2022-09-13T05:41:16;5.65;;;3.80;;
10122;SDS011;5101;49.038;8.710;2022-09-13T05:43:41;4.43;;;4.03;;
10122;SDS011;5101;49.038;8.710;2022-09-13T05:46:11;6.75;;;4.13;;
10122;SDS011;5101;49.038;8.710;2022-09-13T05:48:38;3.78;;;3.45;;
10122;SDS011;5101;49.038;8.710;2022-09-13T05:51:06;4.93;;;3.70;;
10122;SDS011;5101;49.038;8.710;2022-09-13T05:53:34;5.47;;;2.85;;
10122;SDS011;5101;49.038;8.710;2022-09-13T05:56:01;3.80;;;2.92;;
10122;SDS011;5101;49.038;8.710;2022-09-13T05:58:27;4.25;;;2.58;;
10122;SDS011;5101;49.038;8.710;2022-09-13T06:00:53;3.17;;;2.70;;
10122;SDS011;5101;49.038;8.710;2022-09-13T06:03:20;3.15;;;2.53;;
10122;SDS011;5101;49.038;8.710;2022-09-13T06:05:46;5.07;;;2.85;;
10122;SDS011;5101;49.038;8.710;2022-09-13T06:08:12;4.15;;;2.60;;
10122;SDS011;5101;49.038;8.710;2022-09-13T06:10:38;6.80;;;2.92;;
10122;SDS011;5101;49.038;8.710;2022-09-13T06:13:03;5.35;;;2.70;;
10122;SDS011;5101;49.038;8.710;2022-09-13T06:15:29;3.40;;;2.58;;
10122;SDS011;5101;49.038;8.710;2022-09-13T06:17:54;3.50;;;2.85;;
10122;SDS011;5101;49.038;8.710;2022-09-13T06:20:20;11.52;;;3.88;;
10122;SDS011;5101;49.038;8.710;2022-09-13T06:22:48;4.63;;;3.70;;
10122;SDS011;5101;49.038;8.710;2022-09-13T06:25:14;6.00;;;4.38;;
10122;SDS011;5101;49.038;8.710;2022-09-13T06:27:40;8.45;;;3.63;;
10122;SDS011;5101;49.038;8.710;2022-09-13T06:30:06;10.98;;;4.97;;
10122;SDS011;5101;49.038;8.710;2022-09-13T06:32:33;12.57;;;4.78;;
10122;SDS011;5101;49.038;8.710;2022-09-13T06:34:59;4.40;;;3.40;;
10122;SDS011;5101;49.038;8.710;2022-09-13T06:37:25;6.05;;;4.05;;
10122;SDS011;5101;49.038;8.710;2022-09-13T06:39:51;4.40;;;4.00;;
10122;SDS011;5101;49.038;8.710;2022-09-13T06:42:16;5.78;;;3.90;;
10122;SDS011;5101;49.038;8.710;2022-09-13T06:44:42;4.78;;;3.53;;
10122;SDS011;5101;49.038;8.710;2022-09-13T06:47:10;5.30;;;3.75;;
10122;SDS011;5101;49.038;8.710;2022-09-13T06:49:36;5.63;;;3.58;;
10122;SDS011;5101;49.038;8.710;2022-09-13T06:52:02;8.40;;;3.40;;
10122;SDS011;5101;49.038;8.710;2022-09-13T06:54:27;5.22;;;3.50;;
10122;SDS011;5101;49.038;8.710;2022-09-13T06:56:53;4.15;;;3.13;;
10122;SDS011;5101;49.038;8.710;2022-09-13T06:59:19;7.20;;;3.30;;
10122;SDS011;5101;49.038;8.710;2022-09-13T07:01:44;8.35;;;3.22;;
10122;SDS011;5101;49.038;8.710;2022-09-13T07:04:11;4.50;;;2.63;;
10122;SDS011;5101;49.038;8.710;2022-09-13T07:06:40;3.30;;;2.65;;
10122;SDS011;5101;49.038;8.710;2022-09-13T07:09:16;4.07;;;2.40;;
10122;SDS011;5101;49.038;8.710;2022-09-13T07:11:43;4.35;;;2.72;;
10122;SDS011;5101;49.038;8.710;2022-09-13T07:14:15;4.40;;;2.72;;
10122;SDS011;5101;49.038;8.710;2022-09-13T07:16:42;5.82;;;2.65;;
10122;SDS011;5101;49.038;8.710;2022-09-13T07:19:14;6.75;;;2.60;;
10122;SDS011;5101;49.038;8.710;2022-09-13T07:21:41;7.40;;;2.47;;
10122;SDS011;5101;49.038;8.710;2022-09-13T07:24:07;2.50;;;2.30;;
10122;SDS011;5101;49.038;8.710;2022-09-13T07:26:34;5.70;;;2.17;;
10122;SDS011;5101;49.038;8.710;2022-09-13T07:29:03;4.03;;;2.40;;
10122;SDS011;5101;49.038;8.710;2022-09-13T07:31:32;5.82;;;2.10;;
10122;SDS011;5101;49.038;8.710;2022-09-13T07:34:03;1.85;;;1.73;;
10122;SDS011;5101;49.038;8.710;2022-09-13T07:36:35;4.88;;;2.60;;
10122;SDS011;5101;49.038;8.710;2022-09-13T07:39:01;6.22;;;1.83;;
10122;SDS011;5101;49.038;8.710;2022-09-13T07:41:28;3.50;;;2.05;;
10122;SDS011;5101;49.038;8.710;2022-09-13T07:43:55;4.63;;;2.30;;
10122;SDS011;5101;49.038;8.710;2022-09-13T07:46:25;5.22;;;2.20;;
10122;SDS011;5101;49.038;8.710;2022-09-13T07:48:52;3.58;;;1.88;;
10122;SDS011;5101;49.038;8.710;2022-09-13T07:51:20;10.63;;;1.83;;
10122;SDS011;5101;49.038;8.710;2022-09-13T07:53:48;8.13;;;1.80;;
10122;SDS011;5101;49.038;8.710;2022-09-13T07:56:16;7.82;;;1.80;;
10122;SDS011;5101;49.038;8.710;2022-09-13T07:58:43;4.55;;;2.00;;
10122;SDS011;5101;49.038;8.710;2022-09-13T08:01:14;7.47;;;2.22;;
10122;SDS011;5101;49.038;8.710;2022-09-13T08:03:42;2.05;;;1.70;;
10122;SDS011;5101;49.038;8.710;2022-09-13T08:06:14;6.18;;;1.77;;
10122;SDS011;5101;49.038;8.710;2022-09-13T08:08:39;3.00;;;1.77;;
10122;SDS011;5101;49.038;8.710;2022-09-13T08:11:05;3.65;;;1.77;;
10122;SDS011;5101;49.038;8.710;2022-09-13T08:13:31;3.17;;;1.67;;
10122;SDS011;5101;49.038;8.710;2022-09-13T08:16:04;3.55;;;1.75;;
10122;SDS011;5101;49.038;8.710;2022-09-13T08:18:30;6.10;;;1.80;;
10122;SDS011;5101;49.038;8.710;2022-09-13T08:20:57;1.67;;;1.55;;
10122;SDS011;5101;49.038;8.710;2022-09-13T08:23:23;2.70;;;1.73;;
10122;SDS011;5101;49.038;8.710;2022-09-13T08:25:49;4.68;;;1.50;;
10122;SDS011;5101;49.038;8.710;2022-09-13T08:28:15;2.17;;;1.60;;
10122;SDS011;5101;49.038;8.710;2022-09-13T08:30:42;2.97;;;1.60;;
10122;SDS011;5101;49.038;8.710;2022-09-13T08:33:09;5.43;;;1.38;;
10122;SDS011;5101;49.038;8.710;2022-09-13T08:35:35;2.60;;;1.55;;
10122;SDS011;5101;49.038;8.710;2022-09-13T08:38:02;2.92;;;1.38;;
10122;SDS011;5101;49.038;8.710;2022-09-13T08:40:30;2.13;;;1.45;;
10122;SDS011;5101;49.038;8.710;2022-09-13T08:43:06;1.20;;;1.20;;
10122;SDS011;5101;49.038;8.710;2022-09-13T08:45:59;1.05;;;1.05;;
10122;SDS011;5101;49.038;8.710;2022-09-13T08:48:30;1.20;;;1.05;;
10122;SDS011;5101;49.038;8.710;2022-09-13T08:51:00;2.05;;;1.20;;
10122;SDS011;5101;49.038;8.710;2022-09-13T08:53:31;1.48;;;1.20;;
10122;SDS011;5101;49.038;8.710;2022-09-13T08:56:10;5.65;;;1.40;;
10122;SDS011;5101;49.038;8.710;2022-09-13T09:03:45;1.42;;;1.10;;
10122;SDS011;5101;49.038;8.710;2022-09-13T09:06:17;5.22;;;1.30;;
10122;SDS011;5101;49.038;8.710;2022-09-13T09:11:27;1.00;;;1.00;;
10122;SDS011;5101;49.038;8.710;2022-09-13T09:14:03;2.63;;;1.00;;
10122;SDS011;5101;49.038;8.710;2022-09-13T09:18:56;4.63;;;1.33;;
10122;SDS011;5101;49.038;8.710;2022-09-13T09:21:29;1.25;;;1.20;;
10122;SDS011;5101;49.038;8.710;2022-09-13T09:23:57;3.65;;;1.42;;
10122;SDS011;5101;49.038;8.710;2022-09-13T09:26:28;1.40;;;1.25;;
10122;SDS011;5101;49.038;8.710;2022-09-13T09:28:59;1.30;;;1.20;;
10122;SDS011;5101;49.038;8.710;2022-09-13T09:37:04;3.35;;;1.40;;
10122;SDS011;5101;49.038;8.710;2022-09-13T09:39:30;2.65;;;1.08;;
10122;SDS011;5101;49.038;8.710;2022-09-13T09:41:57;1.38;;;1.20;;
10122;SDS011;5101;49.038;8.710;2022-09-13T09:44:26;4.43;;;1.20;;
10122;SDS011;5101;49.038;8.710;2022-09-13T09:47:05;2.63;;;1.20;;
10122;SDS011;5101;49.038;8.710;2022-09-13T09:49:37;1.15;;;1.10;;
10122;SDS011;5101;49.038;8.710;2022-09-13T09:52:28;1.55;;;0.90;;
10122;SDS011;5101;49.038;8.710;2022-09-13T09:55:00;3.70;;;0.90;;
10122;SDS011;5101;49.038;8.710;2022-09-13T09:58:01;2.05;;;0.85;;
10122;SDS011;5101;49.038;8.710;2022-09-13T10:00:31;3.33;;;1.20;;
10122;SDS011;5101;49.038;8.710;2022-09-13T10:03:03;2.33;;;0.90;;
10122;SDS011;5101;49.038;8.710;2022-09-13T10:05:31;3.63;;;1.00;;
10122;SDS011;5101;49.038;8.710;2022-09-13T10:12:58;1.88;;;0.90;;
10122;SDS011;5101;49.038;8.710;2022-09-13T10:15:28;1.40;;;0.85;;
10122;SDS011;5101;49.038;8.710;2022-09-13T10:20:31;0.82;;;0.82;;
10122;SDS011;5101;49.038;8.710;2022-09-13T10:23:14;1.40;;;1.00;;
10122;SDS011;5101;49.038;8.710;2022-09-13T10:25:44;2.30;;;0.80;;
10122;SDS011;5101;49.038;8.710;2022-09-13T10:28:35;0.77;;;0.77;;
10122;SDS011;5101;49.038;8.710;2022-09-13T10:31:26;2.38;;;0.80;;
10122;SDS011;5101;49.038;8.710;2022-09-13T10:34:06;3.13;;;1.10;;
10122;SDS011;5101;49.038;8.710;2022-09-13T10:39:18;1.40;;;0.90;;
10122;SDS011;5101;49.038;8.710;2022-09-13T10:41:52;5.40;;;1.02;;
10122;SDS011;5101;49.038;8.710;2022-09-13T10:44:23;4.05;;;0.90;;
10122;SDS011;5101;49.038;8.710;2022-09-13T10:47:06;1.35;;;0.98;;
10122;SDS011;5101;49.038;8.710;2022-09-13T10:49:39;4.05;;;1.05;;
10122;SDS011;5101;49.038;8.710;2022-09-13T10:54:55;4.30;;;1.73;;
10122;SDS011;5101;49.038;8.710;2022-09-13T10:57:40;2.08;;;0.80;;
10122;SDS011;5101;49.038;8.710;2022-09-13T11:00:05;0.60;;;0.60;;
10122;SDS011;5101;49.038;8.710;2022-09-13T11:05:31;0.75;;;0.70;;
10122;SDS011;5101;49.038;8.710;2022-09-13T11:11:02;1.75;;;0.70;;
10122;SDS011;5101;49.038;8.710;2022-09-13T11:30:24;1.02;;;0.90;;
10122;SDS011;5101;49.038;8.710;2022-09-13T11:35:35;1.45;;;1.00;;
10122;SDS011;5101;49.038;8.710;2022-09-13T11:41:31;2.25;;;0.80;;
10122;SDS011;5101;49.038;8.710;2022-09-13T11:45:21;1.85;;;1.30;;
10122;SDS011;5101;49.038;8.710;2022-09-13T11:55:43;2.38;;;1.02;;
10122;SDS011;5101;49.038;8.710;2022-09-13T11:58:10;4.57;;;0.93;;
10122;SDS011;5101;49.038;8.710;2022-09-13T12:00:43;4.15;;;0.82;;
10122;SDS011;5101;49.038;8.710;2022-09-13T12:03:16;1.48;;;0.93;;
10122;SDS011;5101;49.038;8.710;2022-09-13T12:08:42;1.38;;;0.90;;
10122;SDS011;5101;49.038;8.710;2022-09-13T12:11:16;0.93;;;0.90;;
10122;SDS011;5101;49.038;8.710;2022-09-13T12:13:53;2.25;;;1.00;;
10122;SDS011;5101;49.038;8.710;2022-09-13T12:16:26;5.13;;;1.27;;
10122;SDS011;5101;49.038;8.710;2022-09-13T12:19:00;1.58;;;0.88;;
10122;SDS011;5101;49.038;8.710;2022-09-13T12:21:39;1.75;;;1.10;;
10122;SDS011;5101;49.038;8.710;2022-09-13T12:24:15;1.15;;;1.02;;
10122;SDS011;5101;49.038;8.710;2022-09-13T12:27:02;1.90;;;0.85;;
10122;SDS011;5101;49.038;8.710;2022-09-13T12:29:47;1.23;;;0.80;;
10122;SDS011;5101;49.038;8.710;2022-09-13T12:32:17;1.70;;;0.55;;
10122;SDS011;5101;49.038;8.710;2022-09-13T12:34:57;0.88;;;0.77;;
10122;SDS011;5101;49.038;8.710;2022-09-13T12:40:06;0.88;;;0.60;;
10122;SDS011;5101;49.038;8.710;2022-09-13T12:51:04;0.80;;;0.70;;
10122;SDS011;5101;49.038;8.710;2022-09-13T12:53:43;0.73;;;0.63;;
10122;SDS011;5101;49.038;8.710;2022-09-13T13:01:47;1.30;;;0.80;;
10122;SDS011;5101;49.038;8.710;2022-09-13T13:12:08;2.15;;;0.77;;
10122;SDS011;5101;49.038;8.710;2022-09-13T13:14:53;3.83;;;0.80;;
10122;SDS011;5101;49.038;8.710;2022-09-13T13:18:18;1.05;;;0.80;;
10122;SDS011;5101;49.038;8.710;2022-09-13T13:23:12;3.13;;;0.70;;
10122;SDS011;5101;49.038;8.710;2022-09-13T13:25:52;1.67;;;0.70;;
10122;SDS011;5101;49.038;8.710;2022-09-13T13:33:53;1.67;;;0.80;;
10122;SDS011;5101;49.038;8.710;2022-09-13T13:36:45;1.80;;;0.60;;
10122;SDS011;5101;49.038;8.710;2022-09-13T13:46:53;4.45;;;0.80;;
10122;SDS011;5101;49.038;8.710;2022-09-13T13:54:56;2.88;;;0.70;;
10122;SDS011;5101;49.038;8.710;2022-09-13T13:59:50;0.68;;;0.60;;
10122;SDS011;5101;49.038;8.710;2022-09-13T14:02:29;2.97;;;0.70;;
10122;SDS011;5101;49.038;8.710;2022-09-13T14:05:08;2.55;;;0.60;;
10122;SDS011;5101;49.038;8.710;2022-09-13T14:21:46;0.70;;;0.50;;
10122;SDS011;5101;49.038;8.710;2022-09-13T14:24:34;2.17;;;0.60;;
10122;SDS011;5101;49.038;8.710;2022-09-13T14:27:01;0.88;;;0.70;;
10122;SDS011;5101;49.038;8.710;2022-09-13T14:29:27;2.05;;;0.73;;
10122;SDS011;5101;49.038;8.710;2022-09-13T14:31:56;1.65;;;0.45;;
10122;SDS011;5101;49.038;8.710;2022-09-13T14:34:31;4.78;;;0.40;;
10122;SDS011;5101;49.038;8.710;2022-09-13T14:37:03;1.73;;;0.60;;
10122;SDS011;5101;49.038;8.710;2022-09-13T14:39:31;1.65;;;0.32;;
10122;SDS011;5101;49.038;8.710;2022-09-13T14:42:01;0.55;;;0.40;;
10122;SDS011;5101;49.038;8.710;2022-09-13T14:44:36;4.20;;;0.80;;
10122;SDS011;5101;49.038;8.710;2022-09-13T14:47:11;1.55;;;0.40;;
10122;SDS011;5101;49.038;8.710;2022-09-13T14:49:51;4.90;;;0.63;;
10122;SDS011;5101;49.038;8.710;2022-09-13T14:52:42;1.38;;;0.65;;
10122;SDS011;5101;49.038;8.710;2022-09-13T14:55:21;3.58;;;0.70;;
10122;SDS011;5101;49.038;8.710;2022-09-13T14:57:52;0.60;;;0.50;;
10122;SDS011;5101;49.038;8.710;2022-09-13T15:00:22;5.20;;;0.50;;
10122;SDS011;5101;49.038;8.710;2022-09-13T15:05:18;1.15;;;0.55;;
10122;SDS011;5101;49.038;8.710;2022-09-13T15:07:46;1.05;;;0.60;;
10122;SDS011;5101;49.038;8.710;2022-09-13T15:10:22;2.58;;;0.40;;
10122;SDS011;5101;49.038;8.710;2022-09-13T15:18:03;1.23;;;0.65;;
10122;SDS011;5101;49.038;8.710;2022-09-13T15:23:29;2.25;;;0.68;;
10122;SDS011;5101;49.038;8.710;2022-09-13T15:36:48;2.67;;;1.10;;
10122;SDS011;5101;49.038;8.710;2022-09-13T15:39:26;1.92;;;1.20;;
10122;SDS011;5101;49.038;8.710;2022-09-13T15:41:53;1.48;;;1.10;;
10122;SDS011;5101;49.038;8.710;2022-09-13T15:44:20;1.40;;;0.90;;
10122;SDS011;5101;49.038;8.710;2022-09-13T15:46:47;0.75;;;0.75;;
10122;SDS011;5101;49.038;8.710;2022-09-13T15:49:18;0.50;;;0.50;;
10122;SDS011;5101;49.038;8.710;2022-09-13T15:51:54;4.38;;;0.55;;
10122;SDS011;5101;49.038;8.710;2022-09-13T15:54:39;2.90;;;0.98;;
10122;SDS011;5101;49.038;8.710;2022-09-13T15:57:07;1.38;;;0.50;;
10122;SDS011;5101;49.038;8.710;2022-09-13T15:59:52;0.75;;;0.30;;
10122;SDS011;5101;49.038;8.710;2022-09-13T16:02:24;3.97;;;0.50;;
10122;SDS011;5101;49.038;8.710;2022-09-13T16:04:52;1.55;;;0.60;;
10122;SDS011;5101;49.038;8.710;2022-09-13T16:07:18;1.67;;;0.40;;
10122;SDS011;5101;49.038;8.710;2022-09-13T16:09:44;4.00;;;0.50;;
10122;SDS011;5101;49.038;8.710;2022-09-13T16:12:10;2.47;;;0.50;;
10122;SDS011;5101;49.038;8.710;2022-09-13T16:14:36;0.57;;;0.50;;
10122;SDS011;5101;49.038;8.710;2022-09-13T16:17:03;1.30;;;0.50;;
10122;SDS011;5101;49.038;8.710;2022-09-13T16:19:31;0.98;;;0.50;;
10122;SDS011;5101;49.038;8.710;2022-09-13T16:21:57;2.55;;;0.50;;
10122;SDS011;5101;49.038;8.710;2022-09-13T16:24:23;0.90;;;0.57;;
10122;SDS011;5101;49.038;8.710;2022-09-13T16:26:49;0.68;;;0.50;;
10122;SDS011;5101;49.038;8.710;2022-09-13T16:29:14;0.85;;;0.43;;
10122;SDS011;5101;49.038;8.710;2022-09-13T16:31:40;1.00;;;0.57;;
10122;SDS011;5101;49.038;8.710;2022-09-13T16:34:05;0.80;;;0.47;;
10122;SDS011;5101;49.038;8.710;2022-09-13T16:36:31;1.65;;;0.47;;
10122;SDS011;5101;49.038;8.710;2022-09-13T16:38:58;3.00;;;0.40;;
10122;SDS011;5101;49.038;8.710;2022-09-13T16:41:24;1.80;;;0.40;;
10122;SDS011;5101;49.038;8.710;2022-09-13T16:43:50;0.65;;;0.50;;
10122;SDS011;5101;49.038;8.710;2022-09-13T16:46:15;1.45;;;0.45;;
10122;SDS011;5101;49.038;8.710;2022-09-13T16:48:42;1.98;;;0.73;;
10122;SDS011;5101;49.038;8.710;2022-09-13T16:51:08;2.58;;;0.60;;
10122;SDS011;5101;49.038;8.710;2022-09-13T16:53:35;3.92;;;0.50;;
10122;SDS011;5101;49.038;8.710;2022-09-13T16:56:04;0.98;;;0.40;;
10122;SDS011;5101;49.038;8.710;2022-09-13T16:58:35;3.65;;;0.60;;
10122;SDS011;5101;49.038;8.710;2022-09-13T17:01:05;0.80;;;0.60;;
10122;SDS011;5101;49.038;8.710;2022-09-13T17:03:32;4.97;;;0.65;;
10122;SDS011;5101;49.038;8.710;2022-09-13T17:06:00;0.90;;;0.60;;
10122;SDS011;5101;49.038;8.710;2022-09-13T17:08:38;1.45;;;0.55;;
10122;SDS011;5101;49.038;8.710;2022-09-13T17:11:14;4.97;;;0.60;;
10122;SDS011;5101;49.038;8.710;2022-09-13T17:13:41;1.50;;;0.60;;
10122;SDS011;5101;49.038;8.710;2022-09-13T17:16:18;2.80;;;0.85;;
10122;SDS011;5101;49.038;8.710;2022-09-13T17:18:51;2.05;;;1.90;;
10122;SDS011;5101;49.038;8.710;2022-09-13T17:21:18;2.85;;;1.75;;
10122;SDS011;5101;49.038;8.710;2022-09-13T17:23:44;4.13;;;1.30;;
10122;SDS011;5101;49.038;8.710;2022-09-13T17:26:09;5.07;;;1.20;;
10122;SDS011;5101;49.038;8.710;2022-09-13T17:28:35;4.70;;;1.20;;
10122;SDS011;5101;49.038;8.710;2022-09-13T17:31:01;1.75;;;0.88;;
10122;SDS011;5101;49.038;8.710;2022-09-13T17:33:27;4.07;;;1.17;;
10122;SDS011;5101;49.038;8.710;2022-09-13T17:35:59;3.55;;;1.10;;
10122;SDS011;5101;49.038;8.710;2022-09-13T17:38:26;6.43;;;1.10;;
10122;SDS011;5101;49.038;8.710;2022-09-13T17:41:02;6.15;;;1.08;;
10122;SDS011;5101;49.038;8.710;2022-09-13T17:43:33;4.55;;;1.10;;
10122;SDS011;5101;49.038;8.710;2022-09-13T17:46:15;2.80;;;0.90;;
10122;SDS011;5101;49.038;8.710;2022-09-13T17:48:45;1.80;;;1.15;;
10122;SDS011;5101;49.038;8.710;2022-09-13T17:51:18;7.53;;;0.90;;
10122;SDS011;5101;49.038;8.710;2022-09-13T17:53:48;3.22;;;0.90;;
10122;SDS011;5101;49.038;8.710;2022-09-13T17:56:16;3.53;;;1.33;;
10122;SDS011;5101;49.038;8.710;2022-09-13T17:58:42;5.95;;;1.50;;
10122;SDS011;5101;49.038;8.710;2022-09-13T18:01:08;4.68;;;1.40;;
10122;SDS011;5101;49.038;8.710;2022-09-13T18:03:35;5.38;;;1.55;;
10122;SDS011;5101;49.038;8.710;2022-09-13T18:06:02;4.90;;;1.30;;
10122;SDS011;5101;49.038;8.710;2022-09-13T18:08:30;3.97;;;1.50;;
10122;SDS011;5101;49.038;8.710;2022-09-13T18:11:01;7.00;;;1.52;;
10122;SDS011;5101;49.038;8.710;2022-09-13T18:13:28;7.05;;;1.30;;
10122;SDS011;5101;49.038;8.710;2022-09-13T18:16:00;6.30;;;1.63;;
10122;SDS011;5101;49.038;8.710;2022-09-13T18:18:47;7.57;;;1.50;;
10122;SDS011;5101;49.038;8.710;2022-09-13T18:21:14;4.80;;;1.35;;
10122;SDS011;5101;49.038;8.710;2022-09-13T18:23:43;5.78;;;1.35;;
10122;SDS011;5101;49.038;8.710;2022-09-13T18:26:10;2.15;;;1.20;;
10122;SDS011;5101;49.038;8.710;2022-09-13T18:28:38;5.40;;;1.40;;
10122;SDS011;5101;49.038;8.710;2022-09-13T18:31:06;2.65;;;1.40;;
10122;SDS011;5101;49.038;8.710;2022-09-13T18:33:35;3.00;;;1.42;;
10122;SDS011;5101;49.038;8.710;2022-09-13T18:36:02;2.70;;;1.20;;
10122;SDS011;5101;49.038;8.710;2022-09-13T18:38:30;2.25;;;1.35;;
10122;SDS011;5101;49.038;8.710;2022-09-13T18:40:59;3.47;;;1.42;;
10122;SDS011;5101;49.038;8.710;2022-09-13T18:43:29;2.13;;;1.33;;
10122;SDS011;5101;49.038;8.710;2022-09-13T18:45:59;2.22;;;1.50;;
10122;SDS011;5101;49.038;8.710;2022-09-13T18:48:29;5.25;;;1.70;;
10122;SDS011;5101;49.038;8.710;2022-09-13T18:50:56;2.63;;;1.35;;
10122;SDS011;5101;49.038;8.710;2022-09-13T18:53:23;4.30;;;1.67;;
10122;SDS011;5101;49.038;8.710;2022-09-13T18:55:48;3.38;;;1.40;;